sensor_id;sensor_type;location;lat;lon;timestamp;temperature;humidity
39621;DHT22;25309;48.686;9.170;2023-08-07T00:02:26;11.30;99.90
39621;DHT22;25309;48.686;9.170;2023-08-07T00:04:54;11.30;99.90
39621;DHT22;25309;48.686;9.170;2023-08-07T00:07:21;11.30;99.90
39621;DHT22;25309;48.686;9.170;2023-08-07T00:09:49;11.30;99.90
39621;DHT22;25309;48.686;9.170;2023-08-07T00:12:16;11.30;99.90
39621;DHT22;25309;48.686;9.170;2023-08-07T00:14:43;11.30;99.90
39621;DHT22;25309;48.686;9.170;2023-08-07T00:17:10;11.30;99.90
39621;DHT22;25309;48.686;9.170;2023-08-07T00:19:37;11.30;99.90
39621;DHT22;25309;48.686;9.170;2023-08-07T00:22:04;11.30;99.90
39621;DHT22;25309;48.686;9.170;2023-08-07T00:24:31;11.20;99.90
39621;DHT22;25309;48.686;9.170;2023-08-07T00:26:59;11.20;99.90
39621;DHT22;25309;48.686;9.170;2023-08-07T00:29:26;11.20;99.90
39621;DHT22;25309;48.686;9.170;2023-08-07T00:31:53;11.10;99.90
39621;DHT22;25309;48.686;9.170;2023-08-07T00:34:20;11.20;99.90
39621;DHT22;25309;48.686;9.170;2023-08-07T00:36:49;11.10;99.90
39621;DHT22;25309;48.686;9.170;2023-08-07T00:39:16;11.10;99.90
39621;DHT22;25309;48.686;9.170;2023-08-07T00:41:43;11.10;99.90
39621;DHT22;25309;48.686;9.170;2023-08-07T00:44:11;11.10;99.90
39621;DHT22;25309;48.686;9.170;2023-08-07T00:46:39;11.00;99.90
39621;DHT22;25309;48.686;9.170;2023-08-07T00:49:08;11.00;99.90
39621;DHT22;25309;48.686;9.170;2023-08-07T00:51:36;11.00;99.90
39621;DHT22;25309;48.686;9.170;2023-08-07T00:54:06;11.00;99.90
39621;DHT22;25309;48.686;9.170;2023-08-07T00:56:34;11.00;99.90
39621;DHT22;25309;48.686;9.170;2023-08-07T00:59:01;11.00;99.90
39621;DHT22;25309;48.686;9.170;2023-08-07T01:01:30;11.00;99.90
39621;DHT22;25309;48.686;9.170;2023-08-07T01:03:58;11.00;99.90
39621;DHT22;25309;48.686;9.170;2023-08-07T01:06:26;10.90;99.90
39621;DHT22;25309;48.686;9.170;2023-08-07T01:08:53;10.90;99.90
39621;DHT22;25309;48.686;9.170;2023-08-07T01:11:24;10.90;99.90
39621;DHT22;25309;48.686;9.170;2023-08-07T01:13:59;10.90;99.90
39621;DHT22;25309;48.686;9.170;2023-08-07T01:16:31;10.90;99.90
39621;DHT22;25309;48.686;9.170;2023-08-07T01:19:01;10.90;99.90
39621;DHT22;25309;48.686;9.170;2023-08-07T01:21:32;10.90;99.90
39621;DHT22;25309;48.686;9.170;2023-08-07T01:24:00;10.90;99.90
39621;DHT22;25309;48.686;9.170;2023-08-07T01:26:28;11.00;99.90
39621;DHT22;25309;48.686;9.170;2023-08-07T01:28:59;11.00;99.90
39621;DHT22;25309;48.686;9.170;2023-08-07T01:31:30;11.00;99.90
39621;DHT22;25309;48.686;9.170;2023-08-07T01:34:04;11.10;99.90
39621;DHT22;25309;48.686;9.170;2023-08-07T01:36:31;11.10;99.90
39621;DHT22;25309;48.686;9.170;2023-08-07T01:39:01;11.00;99.90
39621;DHT22;25309;48.686;9.170;2023-08-07T01:41:29;11.10;99.90
39621;DHT22;25309;48.686;9.170;2023-08-07T01:43:57;11.00;99.90
39621;DHT22;25309;48.686;9.170;2023-08-07T01:46:24;11.00;99.90
39621;DHT22;25309;48.686;9.170;2023-08-07T01:48:53;11.00;99.90
39621;DHT22;25309;48.686;9.170;2023-08-07T01:51:21;11.00;99.90
39621;DHT22;25309;48.686;9.170;2023-08-07T01:53:49;11.00;99.90
39621;DHT22;25309;48.686;9.170;2023-08-07T01:56:17;11.00;99.90
39621;DHT22;25309;48.686;9.170;2023-08-07T01:58:44;11.00;99.90
39621;DHT22;25309;48.686;9.170;2023-08-07T02:01:11;11.00;99.90
39621;DHT22;25309;48.686;9.170;2023-08-07T02:03:38;11.00;99.90
39621;DHT22;25309;48.686;9.170;2023-08-07T02:06:05;11.00;99.90
39621;DHT22;25309;48.686;9.170;2023-08-07T02:08:32;11.00;99.90
39621;DHT22;25309;48.686;9.170;2023-08-07T02:10:59;11.00;99.90
39621;DHT22;25309;48.686;9.170;2023-08-07T02:13:29;11.00;99.90
39621;DHT22;25309;48.686;9.170;2023-08-07T02:15:56;11.10;99.90
39621;DHT22;25309;48.686;9.170;2023-08-07T02:18:23;11.10;99.90
39621;DHT22;25309;48.686;9.170;2023-08-07T02:20:51;11.10;99.90
39621;DHT22;25309;48.686;9.170;2023-08-07T02:23:18;11.10;99.90
39621;DHT22;25309;48.686;9.170;2023-08-07T02:25:45;11.10;99.90
39621;DHT22;25309;48.686;9.170;2023-08-07T02:28:13;11.10;99.90
39621;DHT22;25309;48.686;9.170;2023-08-07T02:30:41;11.10;99.90
39621;DHT22;25309;48.686;9.170;2023-08-07T02:33:13;11.20;99.90
39621;DHT22;25309;48.686;9.170;2023-08-07T02:35:40;11.20;99.90
39621;DHT22;25309;48.686;9.170;2023-08-07T02:38:07;11.20;99.90
39621;DHT22;25309;48.686;9.170;2023-08-07T02:40:34;11.20;99.90
39621;DHT22;25309;48.686;9.170;2023-08-07T02:43:02;11.20;99.90
39621;DHT22;25309;48.686;9.170;2023-08-07T02:45:29;11.20;99.90
39621;DHT22;25309;48.686;9.170;2023-08-07T02:47:59;11.30;99.90
39621;DHT22;25309;48.686;9.170;2023-08-07T02:50:26;11.30;99.90
39621;DHT22;25309;48.686;9.170;2023-08-07T02:52:54;11.30;99.90
39621;DHT22;25309;48.686;9.170;2023-08-07T02:55:21;11.30;99.90
39621;DHT22;25309;48.686;9.170;2023-08-07T02:57:48;11.30;99.90
39621;DHT22;25309;48.686;9.170;2023-08-07T03:00:15;11.30;99.90
39621;DHT22;25309;48.686;9.170;2023-08-07T03:02:42;11.30;99.90
39621;DHT22;25309;48.686;9.170;2023-08-07T03:05:11;11.20;99.90
39621;DHT22;25309;48.686;9.170;2023-08-07T03:07:38;11.30;99.90
39621;DHT22;25309;48.686;9.170;2023-08-07T03:10:06;11.30;99.90
39621;DHT22;25309;48.686;9.170;2023-08-07T03:12:34;11.30;99.90
39621;DHT22;25309;48.686;9.170;2023-08-07T03:15:01;11.20;99.90
39621;DHT22;25309;48.686;9.170;2023-08-07T03:17:28;11.20;99.90
39621;DHT22;25309;48.686;9.170;2023-08-07T03:19:54;11.20;99.90
39621;DHT22;25309;48.686;9.170;2023-08-07T03:22:23;11.20;99.90
39621;DHT22;25309;48.686;9.170;2023-08-07T03:24:50;11.20;99.90
39621;DHT22;25309;48.686;9.170;2023-08-07T03:27:18;11.20;99.90
39621;DHT22;25309;48.686;9.170;2023-08-07T03:29:46;11.10;99.90
39621;DHT22;25309;48.686;9.170;2023-08-07T03:32:13;11.10;99.90
39621;DHT22;25309;48.686;9.170;2023-08-07T03:34:41;11.10;99.90
39621;DHT22;25309;48.686;9.170;2023-08-07T03:37:08;11.10;99.90
39621;DHT22;25309;48.686;9.170;2023-08-07T03:39:38;11.10;99.90
39621;DHT22;25309;48.686;9.170;2023-08-07T03:42:05;11.00;99.90
39621;DHT22;25309;48.686;9.170;2023-08-07T03:44:32;11.10;99.90
39621;DHT22;25309;48.686;9.170;2023-08-07T03:47:01;11.00;99.90
39621;DHT22;25309;48.686;9.170;2023-08-07T03:49:28;11.00;99.90
39621;DHT22;25309;48.686;9.170;2023-08-07T03:51:56;11.00;99.90
39621;DHT22;25309;48.686;9.170;2023-08-07T03:54:23;11.00;99.90
39621;DHT22;25309;48.686;9.170;2023-08-07T03:56:51;11.00;99.90
39621;DHT22;25309;48.686;9.170;2023-08-07T03:59:18;11.00;99.90
39621;DHT22;25309;48.686;9.170;2023-08-07T04:01:45;11.00;99.90
39621;DHT22;25309;48.686;9.170;2023-08-07T04:04:12;10.90;99.90
39621;DHT22;25309;48.686;9.170;2023-08-07T04:06:39;11.00;99.90
39621;DHT22;25309;48.686;9.170;2023-08-07T04:09:06;11.00;99.90
39621;DHT22;25309;48.686;9.170;2023-08-07T04:11:34;10.90;99.90
39621;DHT22;25309;48.686;9.170;2023-08-07T04:14:02;11.00;99.90
39621;DHT22;25309;48.686;9.170;2023-08-07T04:16:31;11.00;99.90
39621;DHT22;25309;48.686;9.170;2023-08-07T04:18:58;10.90;99.90
39621;DHT22;25309;48.686;9.170;2023-08-07T04:21:25;10.90;99.90
39621;DHT22;25309;48.686;9.170;2023-08-07T04:23:52;10.90;99.90
39621;DHT22;25309;48.686;9.170;2023-08-07T04:26:19;10.90;99.90
39621;DHT22;25309;48.686;9.170;2023-08-07T04:28:46;10.90;99.90
39621;DHT22;25309;48.686;9.170;2023-08-07T04:31:14;10.90;99.90
39621;DHT22;25309;48.686;9.170;2023-08-07T04:33:41;10.80;99.90
39621;DHT22;25309;48.686;9.170;2023-08-07T04:36:08;10.80;99.90
39621;DHT22;25309;48.686;9.170;2023-08-07T04:38:35;10.80;99.90
39621;DHT22;25309;48.686;9.170;2023-08-07T04:41:03;10.80;99.90
39621;DHT22;25309;48.686;9.170;2023-08-07T04:43:30;10.70;99.90
39621;DHT22;25309;48.686;9.170;2023-08-07T04:45:57;10.70;99.90
39621;DHT22;25309;48.686;9.170;2023-08-07T04:48:25;10.70;99.90
39621;DHT22;25309;48.686;9.170;2023-08-07T04:50:52;10.60;99.90
39621;DHT22;25309;48.686;9.170;2023-08-07T04:53:19;10.60;99.90
39621;DHT22;25309;48.686;9.170;2023-08-07T04:55:46;10.60;99.90
39621;DHT22;25309;48.686;9.170;2023-08-07T04:58:13;10.60;99.90
39621;DHT22;25309;48.686;9.170;2023-08-07T05:00:40;10.60;99.90
39621;DHT22;25309;48.686;9.170;2023-08-07T05:03:07;10.60;99.90
39621;DHT22;25309;48.686;9.170;2023-08-07T05:05:36;10.60;99.90
39621;DHT22;25309;48.686;9.170;2023-08-07T05:08:03;10.60;99.90
39621;DHT22;25309;48.686;9.170;2023-08-07T05:10:30;10.60;99.90
39621;DHT22;25309;48.686;9.170;2023-08-07T05:12:57;10.60;99.90
39621;DHT22;25309;48.686;9.170;2023-08-07T05:15:25;10.70;99.90
39621;DHT22;25309;48.686;9.170;2023-08-07T05:17:52;10.70;99.90
39621;DHT22;25309;48.686;9.170;2023-08-07T05:20:19;10.80;99.90
39621;DHT22;25309;48.686;9.170;2023-08-07T05:22:47;10.80;99.90
39621;DHT22;25309;48.686;9.170;2023-08-07T05:25:15;10.80;99.90
39621;DHT22;25309;48.686;9.170;2023-08-07T05:27:42;10.90;99.90
39621;DHT22;25309;48.686;9.170;2023-08-07T05:30:10;10.90;99.90
39621;DHT22;25309;48.686;9.170;2023-08-07T05:32:37;11.00;99.90
39621;DHT22;25309;48.686;9.170;2023-08-07T05:35:05;11.00;99.90
39621;DHT22;25309;48.686;9.170;2023-08-07T05:37:32;11.10;99.90
39621;DHT22;25309;48.686;9.170;2023-08-07T05:40:01;11.10;99.90
39621;DHT22;25309;48.686;9.170;2023-08-07T05:42:29;11.20;99.90
39621;DHT22;25309;48.686;9.170;2023-08-07T05:44:56;11.20;99.90
39621;DHT22;25309;48.686;9.170;2023-08-07T05:47:23;11.30;99.90
39621;DHT22;25309;48.686;9.170;2023-08-07T05:49:50;11.40;99.90
39621;DHT22;25309;48.686;9.170;2023-08-07T05:52:17;11.40;99.90
39621;DHT22;25309;48.686;9.170;2023-08-07T05:54:44;11.40;99.90
39621;DHT22;25309;48.686;9.170;2023-08-07T05:57:12;11.60;99.90
39621;DHT22;25309;48.686;9.170;2023-08-07T05:59:40;11.60;99.90
39621;DHT22;25309;48.686;9.170;2023-08-07T06:02:07;11.60;99.90
39621;DHT22;25309;48.686;9.170;2023-08-07T06:04:34;11.60;99.90
39621;DHT22;25309;48.686;9.170;2023-08-07T06:07:01;11.70;99.90
39621;DHT22;25309;48.686;9.170;2023-08-07T06:09:28;11.80;99.90
39621;DHT22;25309;48.686;9.170;2023-08-07T06:11:55;11.80;99.90
39621;DHT22;25309;48.686;9.170;2023-08-07T06:14:24;11.90;99.90
39621;DHT22;25309;48.686;9.170;2023-08-07T06:16:52;11.90;99.90
39621;DHT22;25309;48.686;9.170;2023-08-07T06:19:19;12.00;99.90
39621;DHT22;25309;48.686;9.170;2023-08-07T06:21:58;12.00;99.90
39621;DHT22;25309;48.686;9.170;2023-08-07T06:24:25;12.10;99.90
39621;DHT22;25309;48.686;9.170;2023-08-07T06:26:52;12.10;99.90
39621;DHT22;25309;48.686;9.170;2023-08-07T06:29:19;12.20;99.90
39621;DHT22;25309;48.686;9.170;2023-08-07T06:31:48;12.20;99.90
39621;DHT22;25309;48.686;9.170;2023-08-07T06:34:15;12.30;99.90
39621;DHT22;25309;48.686;9.170;2023-08-07T06:36:42;12.30;99.90
39621;DHT22;25309;48.686;9.170;2023-08-07T06:39:09;12.30;99.90
39621;DHT22;25309;48.686;9.170;2023-08-07T06:41:37;12.30;99.90
39621;DHT22;25309;48.686;9.170;2023-08-07T06:44:04;12.40;99.90
39621;DHT22;25309;48.686;9.170;2023-08-07T06:46:31;12.40;99.90
39621;DHT22;25309;48.686;9.170;2023-08-07T06:48:59;12.40;99.90
39621;DHT22;25309;48.686;9.170;2023-08-07T06:51:26;12.40;99.90
39621;DHT22;25309;48.686;9.170;2023-08-07T06:53:53;12.50;99.90
39621;DHT22;25309;48.686;9.170;2023-08-07T06:56:20;12.60;99.90
39621;DHT22;25309;48.686;9.170;2023-08-07T06:58:47;12.60;99.90
39621;DHT22;25309;48.686;9.170;2023-08-07T07:01:15;12.60;99.90
39621;DHT22;25309;48.686;9.170;2023-08-07T07:03:42;12.70;99.90
39621;DHT22;25309;48.686;9.170;2023-08-07T07:06:10;12.80;99.90
39621;DHT22;25309;48.686;9.170;2023-08-07T07:08:37;12.80;99.90
39621;DHT22;25309;48.686;9.170;2023-08-07T07:11:04;12.90;99.90
39621;DHT22;25309;48.686;9.170;2023-08-07T07:13:31;12.90;99.90
39621;DHT22;25309;48.686;9.170;2023-08-07T07:15:58;13.00;99.90
39621;DHT22;25309;48.686;9.170;2023-08-07T07:18:25;13.10;99.90
39621;DHT22;25309;48.686;9.170;2023-08-07T07:20:58;13.10;99.90
39621;DHT22;25309;48.686;9.170;2023-08-07T07:23:28;13.20;99.90
39621;DHT22;25309;48.686;9.170;2023-08-07T07:25:55;13.30;99.90
39621;DHT22;25309;48.686;9.170;2023-08-07T07:28:23;13.30;99.90
39621;DHT22;25309;48.686;9.170;2023-08-07T07:30:50;13.40;99.90
39621;DHT22;25309;48.686;9.170;2023-08-07T07:33:17;13.40;99.90
39621;DHT22;25309;48.686;9.170;2023-08-07T07:35:44;13.40;99.90
39621;DHT22;25309;48.686;9.170;2023-08-07T07:38:11;13.50;99.90
39621;DHT22;25309;48.686;9.170;2023-08-07T07:40:40;13.60;99.90
39621;DHT22;25309;48.686;9.170;2023-08-07T07:43:07;13.80;99.90
39621;DHT22;25309;48.686;9.170;2023-08-07T07:45:34;13.90;99.90
39621;DHT22;25309;48.686;9.170;2023-08-07T07:48:02;13.90;99.90
39621;DHT22;25309;48.686;9.170;2023-08-07T07:50:30;14.00;99.90
39621;DHT22;25309;48.686;9.170;2023-08-07T07:52:57;14.10;99.90
39621;DHT22;25309;48.686;9.170;2023-08-07T07:55:24;14.20;99.90
39621;DHT22;25309;48.686;9.170;2023-08-07T07:57:54;14.30;99.90
39621;DHT22;25309;48.686;9.170;2023-08-07T08:00:21;14.40;99.90
39621;DHT22;25309;48.686;9.170;2023-08-07T08:02:53;14.50;99.90
39621;DHT22;25309;48.686;9.170;2023-08-07T08:05:20;14.60;99.90
39621;DHT22;25309;48.686;9.170;2023-08-07T08:07:47;14.60;99.90
39621;DHT22;25309;48.686;9.170;2023-08-07T08:10:14;14.70;99.90
39621;DHT22;25309;48.686;9.170;2023-08-07T08:12:41;14.80;99.90
39621;DHT22;25309;48.686;9.170;2023-08-07T08:15:10;14.90;99.90
39621;DHT22;25309;48.686;9.170;2023-08-07T08:17:37;14.90;99.90
39621;DHT22;25309;48.686;9.170;2023-08-07T08:20:06;14.80;99.90
39621;DHT22;25309;48.686;9.170;2023-08-07T08:22:33;14.70;99.90
39621;DHT22;25309;48.686;9.170;2023-08-07T08:25:00;14.70;99.90
39621;DHT22;25309;48.686;9.170;2023-08-07T08:27:27;14.70;99.90
39621;DHT22;25309;48.686;9.170;2023-08-07T08:29:54;14.80;99.90
39621;DHT22;25309;48.686;9.170;2023-08-07T08:32:22;14.90;99.90
39621;DHT22;25309;48.686;9.170;2023-08-07T08:34:49;15.00;99.90
39621;DHT22;25309;48.686;9.170;2023-08-07T08:37:17;15.20;99.90
39621;DHT22;25309;48.686;9.170;2023-08-07T08:39:44;15.20;99.90
39621;DHT22;25309;48.686;9.170;2023-08-07T08:42:11;15.30;99.90
39621;DHT22;25309;48.686;9.170;2023-08-07T08:44:46;15.30;99.90
39621;DHT22;25309;48.686;9.170;2023-08-07T08:47:16;15.40;99.90
39621;DHT22;25309;48.686;9.170;2023-08-07T08:49:47;15.40;99.90
39621;DHT22;25309;48.686;9.170;2023-08-07T08:52:14;15.50;99.90
39621;DHT22;25309;48.686;9.170;2023-08-07T08:54:43;15.60;99.90
39621;DHT22;25309;48.686;9.170;2023-08-07T08:57:11;15.80;99.90
39621;DHT22;25309;48.686;9.170;2023-08-07T08:59:38;16.00;99.90
39621;DHT22;25309;48.686;9.170;2023-08-07T09:02:06;16.00;99.90
39621;DHT22;25309;48.686;9.170;2023-08-07T09:04:33;16.10;99.90
39621;DHT22;25309;48.686;9.170;2023-08-07T09:07:02;16.30;99.90
39621;DHT22;25309;48.686;9.170;2023-08-07T09:09:29;16.30;99.90
39621;DHT22;25309;48.686;9.170;2023-08-07T09:11:57;16.30;99.90
39621;DHT22;25309;48.686;9.170;2023-08-07T09:14:27;16.20;99.90
39621;DHT22;25309;48.686;9.170;2023-08-07T09:16:59;16.40;99.90
39621;DHT22;25309;48.686;9.170;2023-08-07T09:19:27;16.50;99.90
39621;DHT22;25309;48.686;9.170;2023-08-07T09:21:54;16.70;99.90
39621;DHT22;25309;48.686;9.170;2023-08-07T09:24:23;16.80;99.90
39621;DHT22;25309;48.686;9.170;2023-08-07T09:26:51;16.90;99.90
39621;DHT22;25309;48.686;9.170;2023-08-07T09:29:18;17.00;99.90
39621;DHT22;25309;48.686;9.170;2023-08-07T09:31:46;17.10;99.90
39621;DHT22;25309;48.686;9.170;2023-08-07T09:34:14;17.20;99.90
39621;DHT22;25309;48.686;9.170;2023-08-07T09:36:44;17.20;99.90
39621;DHT22;25309;48.686;9.170;2023-08-07T09:39:12;17.20;99.90
39621;DHT22;25309;48.686;9.170;2023-08-07T09:41:40;17.20;99.90
39621;DHT22;25309;48.686;9.170;2023-08-07T09:44:07;17.50;99.90
39621;DHT22;25309;48.686;9.170;2023-08-07T09:46:41;18.00;99.90
39621;DHT22;25309;48.686;9.170;2023-08-07T09:49:08;18.30;99.90
39621;DHT22;25309;48.686;9.170;2023-08-07T09:51:42;18.40;99.90
39621;DHT22;25309;48.686;9.170;2023-08-07T09:54:10;18.40;99.90
39621;DHT22;25309;48.686;9.170;2023-08-07T09:56:37;18.30;99.90
39621;DHT22;25309;48.686;9.170;2023-08-07T09:59:06;18.30;99.90
39621;DHT22;25309;48.686;9.170;2023-08-07T10:01:36;18.10;99.90
39621;DHT22;25309;48.686;9.170;2023-08-07T10:04:05;17.80;99.90
39621;DHT22;25309;48.686;9.170;2023-08-07T10:06:32;17.70;99.90
39621;DHT22;25309;48.686;9.170;2023-08-07T10:08:59;17.60;99.90
39621;DHT22;25309;48.686;9.170;2023-08-07T10:11:28;17.60;99.90
39621;DHT22;25309;48.686;9.170;2023-08-07T10:13:55;17.50;99.90
39621;DHT22;25309;48.686;9.170;2023-08-07T10:16:26;17.40;99.90
39621;DHT22;25309;48.686;9.170;2023-08-07T10:18:53;17.40;99.90
39621;DHT22;25309;48.686;9.170;2023-08-07T10:21:20;17.40;99.90
39621;DHT22;25309;48.686;9.170;2023-08-07T10:23:50;17.60;99.90
39621;DHT22;25309;48.686;9.170;2023-08-07T10:26:20;18.00;99.90
39621;DHT22;25309;48.686;9.170;2023-08-07T10:28:48;18.40;99.90
39621;DHT22;25309;48.686;9.170;2023-08-07T10:31:17;18.60;99.90
39621;DHT22;25309;48.686;9.170;2023-08-07T10:33:46;18.50;99.90
39621;DHT22;25309;48.686;9.170;2023-08-07T10:36:16;18.50;99.90
39621;DHT22;25309;48.686;9.170;2023-08-07T10:38:43;18.60;99.90
39621;DHT22;25309;48.686;9.170;2023-08-07T10:41:12;18.90;99.90
39621;DHT22;25309;48.686;9.170;2023-08-07T10:43:40;19.00;99.10
39621;DHT22;25309;48.686;9.170;2023-08-07T10:46:12;19.10;99.30
39621;DHT22;25309;48.686;9.170;2023-08-07T10:48:41;19.30;99.50
39621;DHT22;25309;48.686;9.170;2023-08-07T10:51:12;19.40;99.40
39621;DHT22;25309;48.686;9.170;2023-08-07T10:53:41;19.40;98.30
39621;DHT22;25309;48.686;9.170;2023-08-07T10:56:11;19.40;98.00
39621;DHT22;25309;48.686;9.170;2023-08-07T10:58:41;19.30;98.30
39621;DHT22;25309;48.686;9.170;2023-08-07T11:01:19;19.30;97.80
39621;DHT22;25309;48.686;9.170;2023-08-07T11:03:49;19.00;97.40
39621;DHT22;25309;48.686;9.170;2023-08-07T11:06:21;18.60;98.00
39621;DHT22;25309;48.686;9.170;2023-08-07T11:08:50;18.40;98.10
39621;DHT22;25309;48.686;9.170;2023-08-07T11:11:17;18.10;99.10
39621;DHT22;25309;48.686;9.170;2023-08-07T11:13:44;17.90;99.60
39621;DHT22;25309;48.686;9.170;2023-08-07T11:16:12;18.20;99.70
39621;DHT22;25309;48.686;9.170;2023-08-07T11:18:39;18.40;99.50
39621;DHT22;25309;48.686;9.170;2023-08-07T11:21:08;19.00;97.70
39621;DHT22;25309;48.686;9.170;2023-08-07T11:23:38;19.40;97.80
39621;DHT22;25309;48.686;9.170;2023-08-07T11:26:05;19.50;97.10
39621;DHT22;25309;48.686;9.170;2023-08-07T11:28:32;19.30;97.30
39621;DHT22;25309;48.686;9.170;2023-08-07T11:31:00;19.20;97.20
39621;DHT22;25309;48.686;9.170;2023-08-07T11:33:28;19.00;97.20
39621;DHT22;25309;48.686;9.170;2023-08-07T11:35:56;18.60;97.60
39621;DHT22;25309;48.686;9.170;2023-08-07T11:38:30;18.40;98.30
39621;DHT22;25309;48.686;9.170;2023-08-07T11:41:00;18.20;98.70
39621;DHT22;25309;48.686;9.170;2023-08-07T11:43:27;18.10;99.10
39621;DHT22;25309;48.686;9.170;2023-08-07T11:45:55;17.90;99.20
39621;DHT22;25309;48.686;9.170;2023-08-07T11:48:24;17.80;99.80
39621;DHT22;25309;48.686;9.170;2023-08-07T11:50:52;17.60;99.50
39621;DHT22;25309;48.686;9.170;2023-08-07T11:53:19;17.30;99.70
39621;DHT22;25309;48.686;9.170;2023-08-07T11:55:51;17.20;99.90
39621;DHT22;25309;48.686;9.170;2023-08-07T11:58:19;17.00;99.90
39621;DHT22;25309;48.686;9.170;2023-08-07T12:00:47;16.80;99.90
39621;DHT22;25309;48.686;9.170;2023-08-07T12:03:26;16.70;99.90
39621;DHT22;25309;48.686;9.170;2023-08-07T12:05:55;16.70;99.90
39621;DHT22;25309;48.686;9.170;2023-08-07T12:08:23;16.60;99.90
39621;DHT22;25309;48.686;9.170;2023-08-07T12:10:50;16.60;99.90
39621;DHT22;25309;48.686;9.170;2023-08-07T12:13:24;16.60;99.90
39621;DHT22;25309;48.686;9.170;2023-08-07T12:15:52;16.60;99.90
39621;DHT22;25309;48.686;9.170;2023-08-07T12:18:20;16.50;99.90
39621;DHT22;25309;48.686;9.170;2023-08-07T12:20:49;16.50;99.90
39621;DHT22;25309;48.686;9.170;2023-08-07T12:23:16;16.50;99.90
39621;DHT22;25309;48.686;9.170;2023-08-07T12:25:43;16.50;99.90
39621;DHT22;25309;48.686;9.170;2023-08-07T12:28:11;16.40;99.90
39621;DHT22;25309;48.686;9.170;2023-08-07T12:30:39;16.30;99.90
39621;DHT22;25309;48.686;9.170;2023-08-07T12:33:06;16.10;99.90
39621;DHT22;25309;48.686;9.170;2023-08-07T12:35:34;16.00;99.90
39621;DHT22;25309;48.686;9.170;2023-08-07T12:38:01;15.90;99.90
39621;DHT22;25309;48.686;9.170;2023-08-07T12:40:30;15.80;99.90
39621;DHT22;25309;48.686;9.170;2023-08-07T12:43:00;15.90;99.90
39621;DHT22;25309;48.686;9.170;2023-08-07T12:45:27;15.90;99.90
39621;DHT22;25309;48.686;9.170;2023-08-07T12:47:58;16.10;99.90
39621;DHT22;25309;48.686;9.170;2023-08-07T12:50:25;16.30;99.90
39621;DHT22;25309;48.686;9.170;2023-08-07T12:52:52;16.70;99.90
39621;DHT22;25309;48.686;9.170;2023-08-07T12:55:20;16.90;99.90
39621;DHT22;25309;48.686;9.170;2023-08-07T12:57:47;16.80;99.90
39621;DHT22;25309;48.686;9.170;2023-08-07T13:00:16;16.70;99.90
39621;DHT22;25309;48.686;9.170;2023-08-07T13:02:44;16.60;99.90
39621;DHT22;25309;48.686;9.170;2023-08-07T13:05:13;16.50;99.90
39621;DHT22;25309;48.686;9.170;2023-08-07T13:07:41;16.40;99.90
39621;DHT22;25309;48.686;9.170;2023-08-07T13:10:12;16.40;99.90
39621;DHT22;25309;48.686;9.170;2023-08-07T13:12:40;16.30;99.90
39621;DHT22;25309;48.686;9.170;2023-08-07T13:15:09;16.30;99.90
39621;DHT22;25309;48.686;9.170;2023-08-07T13:17:36;16.30;99.90
39621;DHT22;25309;48.686;9.170;2023-08-07T13:20:04;16.30;99.90
39621;DHT22;25309;48.686;9.170;2023-08-07T13:22:36;16.20;99.90
39621;DHT22;25309;48.686;9.170;2023-08-07T13:25:04;16.30;99.90
39621;DHT22;25309;48.686;9.170;2023-08-07T13:27:32;16.50;99.90
39621;DHT22;25309;48.686;9.170;2023-08-07T13:29:59;16.80;99.90
39621;DHT22;25309;48.686;9.170;2023-08-07T13:32:26;16.90;99.90
39621;DHT22;25309;48.686;9.170;2023-08-07T13:34:54;17.00;99.90
39621;DHT22;25309;48.686;9.170;2023-08-07T13:37:21;17.00;99.90
39621;DHT22;25309;48.686;9.170;2023-08-07T13:39:50;17.00;99.90
39621;DHT22;25309;48.686;9.170;2023-08-07T13:42:19;16.90;99.90
39621;DHT22;25309;48.686;9.170;2023-08-07T13:44:46;16.90;99.90
39621;DHT22;25309;48.686;9.170;2023-08-07T13:47:13;16.80;99.90
39621;DHT22;25309;48.686;9.170;2023-08-07T13:49:40;16.80;99.90
39621;DHT22;25309;48.686;9.170;2023-08-07T13:52:08;16.80;99.90
39621;DHT22;25309;48.686;9.170;2023-08-07T13:54:35;16.90;99.90
39621;DHT22;25309;48.686;9.170;2023-08-07T13:57:04;17.30;99.90
39621;DHT22;25309;48.686;9.170;2023-08-07T13:59:31;17.60;99.90
39621;DHT22;25309;48.686;9.170;2023-08-07T14:01:58;18.00;99.90
39621;DHT22;25309;48.686;9.170;2023-08-07T14:04:27;18.40;99.90
39621;DHT22;25309;48.686;9.170;2023-08-07T14:06:54;18.80;99.90
39621;DHT22;25309;48.686;9.170;2023-08-07T14:09:21;19.20;99.90
39621;DHT22;25309;48.686;9.170;2023-08-07T14:11:49;19.80;99.70
39621;DHT22;25309;48.686;9.170;2023-08-07T14:14:17;20.30;99.20
39621;DHT22;25309;48.686;9.170;2023-08-07T14:16:44;20.50;97.70
39621;DHT22;25309;48.686;9.170;2023-08-07T14:19:11;20.40;97.10
39621;DHT22;25309;48.686;9.170;2023-08-07T14:21:38;20.50;96.40
39621;DHT22;25309;48.686;9.170;2023-08-07T14:24:05;20.70;95.90
39621;DHT22;25309;48.686;9.170;2023-08-07T14:26:33;20.70;96.70
39621;DHT22;25309;48.686;9.170;2023-08-07T14:29:00;20.70;96.00
39621;DHT22;25309;48.686;9.170;2023-08-07T14:31:28;20.80;96.40
39621;DHT22;25309;48.686;9.170;2023-08-07T14:33:55;21.00;96.30
39621;DHT22;25309;48.686;9.170;2023-08-07T14:36:23;21.10;95.70
39621;DHT22;25309;48.686;9.170;2023-08-07T14:38:50;21.00;95.30
39621;DHT22;25309;48.686;9.170;2023-08-07T14:41:17;20.70;95.30
39621;DHT22;25309;48.686;9.170;2023-08-07T14:43:45;20.40;95.80
39621;DHT22;25309;48.686;9.170;2023-08-07T14:46:13;20.30;95.90
39621;DHT22;25309;48.686;9.170;2023-08-07T14:48:41;20.10;96.30
39621;DHT22;25309;48.686;9.170;2023-08-07T14:51:08;19.90;96.00
39621;DHT22;25309;48.686;9.170;2023-08-07T14:53:35;19.70;96.10
39621;DHT22;25309;48.686;9.170;2023-08-07T14:56:03;19.50;96.70
39621;DHT22;25309;48.686;9.170;2023-08-07T14:58:30;19.20;96.90
39621;DHT22;25309;48.686;9.170;2023-08-07T15:00:59;19.00;97.60
39621;DHT22;25309;48.686;9.170;2023-08-07T15:03:26;18.80;98.10
39621;DHT22;25309;48.686;9.170;2023-08-07T15:05:54;18.50;98.80
39621;DHT22;25309;48.686;9.170;2023-08-07T15:08:21;18.30;98.80
39621;DHT22;25309;48.686;9.170;2023-08-07T15:10:51;18.10;99.40
39621;DHT22;25309;48.686;9.170;2023-08-07T15:13:18;17.90;99.40
39621;DHT22;25309;48.686;9.170;2023-08-07T15:15:45;17.80;99.10
39621;DHT22;25309;48.686;9.170;2023-08-07T15:18:12;18.00;99.00
39621;DHT22;25309;48.686;9.170;2023-08-07T15:20:39;18.20;98.50
39621;DHT22;25309;48.686;9.170;2023-08-07T15:23:07;18.30;98.00
39621;DHT22;25309;48.686;9.170;2023-08-07T15:25:34;18.30;98.40
39621;DHT22;25309;48.686;9.170;2023-08-07T15:28:01;18.60;98.70
39621;DHT22;25309;48.686;9.170;2023-08-07T15:30:29;19.00;97.70
39621;DHT22;25309;48.686;9.170;2023-08-07T15:32:57;19.40;97.70
39621;DHT22;25309;48.686;9.170;2023-08-07T15:35:24;19.70;97.10